sensor_id;sensor_type;location;lat;lon;timestamp;pressure;altitude;pressure_sealevel;temperature;humidity
12969;BME280;6549;53.128;8.182;2022-09-12T00:02:58;101550.59;;;12.22;100.00
12969;BME280;6549;53.128;8.182;2022-09-12T00:05:58;101552.16;;;12.20;100.00
12969;BME280;6549;53.128;8.182;2022-09-12T00:09:03;101555.69;;;12.20;100.00
12969;BME280;6549;53.128;8.182;2022-09-12T00:12:03;101547.75;;;12.15;100.00
12969;BME280;6549;53.128;8.182;2022-09-12T00:15:04;101556.00;;;12.11;100.00
12969;BME280;6549;53.128;8.182;2022-09-12T00:18:07;101561.06;;;12.09;100.00
12969;BME280;6549;53.128;8.182;2022-09-12T00:21:08;101549.25;;;12.09;100.00
12969;BME280;6549;53.128;8.182;2022-09-12T00:24:09;101561.00;;;12.02;100.00
12969;BME280;6549;53.128;8.182;2022-09-12T00:27:10;101551.47;;;11.96;100.00
12969;BME280;6549;53.128;8.182;2022-09-12T00:30:10;101542.81;;;11.94;100.00
12969;BME280;6549;53.128;8.182;2022-09-12T00:33:11;101541.97;;;11.90;100.00
12969;BME280;6549;53.128;8.182;2022-09-12T00:36:17;101543.50;;;11.88;100.00
12969;BME280;6549;53.128;8.182;2022-09-12T00:39:18;101536.41;;;11.87;100.00
12969;BME280;6549;53.128;8.182;2022-09-12T00:42:18;101533.63;;;11.83;100.00
12969;BME280;6549;53.128;8.182;2022-09-12T00:45:22;101526.88;;;11.77;100.00
12969;BME280;6549;53.128;8.182;2022-09-12T00:48:31;101521.22;;;11.70;100.00
12969;BME280;6549;53.128;8.182;2022-09-12T00:51:35;101512.59;;;11.71;100.00
12969;BME280;6549;53.128;8.182;2022-09-12T00:54:48;101515.31;;;11.68;100.00
12969;BME280;6549;53.128;8.182;2022-09-12T00:57:54;101517.97;;;11.61;100.00
12969;BME280;6549;53.128;8.182;2022-09-12T01:00:57;101516.44;;;11.63;100.00
12969;BME280;6549;53.128;8.182;2022-09-12T01:03:58;101514.81;;;11.59;100.00
12969;BME280;6549;53.128;8.182;2022-09-12T01:06:58;101517.09;;;11.53;100.00
12969;BME280;6549;53.128;8.182;2022-09-12T01:09:58;101515.59;;;11.59;100.00
12969;BME280;6549;53.128;8.182;2022-09-12T01:13:04;101513.97;;;11.55;100.00
12969;BME280;6549;53.128;8.182;2022-09-12T01:16:05;101514.66;;;11.48;100.00
12969;BME280;6549;53.128;8.182;2022-09-12T01:23:11;101510.69;;;11.46;100.00
12969;BME280;6549;53.128;8.182;2022-09-12T01:33:41;101511.34;;;11.36;100.00
12969;BME280;6549;53.128;8.182;2022-09-12T01:37:14;101506.59;;;11.33;100.00
12969;BME280;6549;53.128;8.182;2022-09-12T01:40:29;101513.66;;;11.34;100.00
12969;BME280;6549;53.128;8.182;2022-09-12T01:43:40;101510.91;;;11.34;100.00
12969;BME280;6549;53.128;8.182;2022-09-12T01:46:49;101504.78;;;11.17;100.00
12969;BME280;6549;53.128;8.182;2022-09-12T01:50:20;101503.94;;;11.13;100.00
12969;BME280;6549;53.128;8.182;2022-09-12T01:53:26;101499.25;;;11.14;100.00
12969;BME280;6549;53.128;8.182;2022-09-12T01:56:28;101494.00;;;11.32;100.00
12969;BME280;6549;53.128;8.182;2022-09-12T01:59:39;101487.53;;;11.20;100.00
12969;BME280;6549;53.128;8.182;2022-09-12T02:02:48;101481.50;;;11.11;100.00
12969;BME280;6549;53.128;8.182;2022-09-12T02:06:08;101471.47;;;10.96;100.00
12969;BME280;6549;53.128;8.182;2022-09-12T02:09:19;101471.34;;;10.89;100.00
12969;BME280;6549;53.128;8.182;2022-09-12T02:12:25;101472.16;;;10.90;100.00
12969;BME280;6549;53.128;8.182;2022-09-12T02:15:32;101461.91;;;10.87;100.00
12969;BME280;6549;53.128;8.182;2022-09-12T02:18:37;101463.44;;;10.84;100.00
12969;BME280;6549;53.128;8.182;2022-09-12T02:21:42;101453.16;;;10.81;100.00
12969;BME280;6549;53.128;8.182;2022-09-12T02:24:47;101459.47;;;10.81;100.00
12969;BME280;6549;53.128;8.182;2022-09-12T02:28:05;101462.56;;;10.80;100.00
12969;BME280;6549;53.128;8.182;2022-09-12T02:31:16;101467.66;;;10.78;100.00
12969;BME280;6549;53.128;8.182;2022-09-12T02:34:58;101475.91;;;10.78;100.00
12969;BME280;6549;53.128;8.182;2022-09-12T02:38:17;101471.56;;;10.77;100.00
12969;BME280;6549;53.128;8.182;2022-09-12T02:41:20;101464.88;;;10.74;100.00
12969;BME280;6549;53.128;8.182;2022-09-12T02:44:22;101472.69;;;10.72;100.00
12969;BME280;6549;53.128;8.182;2022-09-12T02:47:43;101467.97;;;10.73;100.00
12969;BME280;6549;53.128;8.182;2022-09-12T02:50:46;101467.22;;;10.76;100.00
12969;BME280;6549;53.128;8.182;2022-09-12T02:53:46;101455.88;;;10.77;100.00
12969;BME280;6549;53.128;8.182;2022-09-12T02:56:46;101451.13;;;10.74;100.00
12969;BME280;6549;53.128;8.182;2022-09-12T02:59:48;101445.63;;;10.74;100.00
12969;BME280;6549;53.128;8.182;2022-09-12T03:03:03;101442.56;;;10.79;100.00
12969;BME280;6549;53.128;8.182;2022-09-12T03:06:20;101442.44;;;10.72;100.00
12969;BME280;6549;53.128;8.182;2022-09-12T03:09:36;101450.69;;;10.72;100.00
12969;BME280;6549;53.128;8.182;2022-09-12T03:19:55;101446.69;;;10.66;100.00
12969;BME280;6549;53.128;8.182;2022-09-12T03:23:10;101440.94;;;10.75;100.00
12969;BME280;6549;53.128;8.182;2022-09-12T03:26:40;101444.13;;;10.80;100.00
12969;BME280;6549;53.128;8.182;2022-09-12T03:29:42;101441.34;;;10.77;100.00
12969;BME280;6549;53.128;8.182;2022-09-12T03:32:47;101442.03;;;10.70;100.00
12969;BME280;6549;53.128;8.182;2022-09-12T03:35:49;101451.44;;;10.69;100.00
12969;BME280;6549;53.128;8.182;2022-09-12T03:38:50;101450.72;;;10.76;100.00
12969;BME280;6549;53.128;8.182;2022-09-12T03:41:51;101442.19;;;10.81;100.00
12969;BME280;6549;53.128;8.182;2022-09-12T03:44:52;101444.09;;;10.77;100.00
12969;BME280;6549;53.128;8.182;2022-09-12T03:47:52;101440.44;;;10.69;100.00
12969;BME280;6549;53.128;8.182;2022-09-12T03:50:52;101435.69;;;10.66;100.00
12969;BME280;6549;53.128;8.182;2022-09-12T03:53:53;101443.13;;;10.66;100.00
12969;BME280;6549;53.128;8.182;2022-09-12T03:56:53;101436.72;;;10.58;100.00
12969;BME280;6549;53.128;8.182;2022-09-12T03:59:54;101437.09;;;10.57;100.00
12969;BME280;6549;53.128;8.182;2022-09-12T04:02:55;101428.56;;;10.62;100.00
12969;BME280;6549;53.128;8.182;2022-09-12T04:05:56;101430.50;;;10.61;100.00
12969;BME280;6549;53.128;8.182;2022-09-12T04:08:56;101435.59;;;10.63;100.00
12969;BME280;6549;53.128;8.182;2022-09-12T04:11:57;101427.38;;;10.63;100.00
12969;BME280;6549;53.128;8.182;2022-09-12T04:14:57;101431.69;;;10.64;100.00
12969;BME280;6549;53.128;8.182;2022-09-12T04:17:58;101437.94;;;10.61;100.00
12969;BME280;6549;53.128;8.182;2022-09-12T04:21:03;101435.16;;;10.57;100.00
12969;BME280;6549;53.128;8.182;2022-09-12T04:24:03;101430.31;;;10.51;100.00
12969;BME280;6549;53.128;8.182;2022-09-12T04:27:04;101431.88;;;10.48;100.00
12969;BME280;6549;53.128;8.182;2022-09-12T04:30:05;101429.91;;;10.49;100.00
12969;BME280;6549;53.128;8.182;2022-09-12T04:33:05;101428.63;;;10.43;100.00
12969;BME280;6549;53.128;8.182;2022-09-12T04:36:08;101425.16;;;10.23;100.00
12969;BME280;6549;53.128;8.182;2022-09-12T04:39:09;101424.25;;;10.15;100.00
12969;BME280;6549;53.128;8.182;2022-09-12T04:42:10;101424.50;;;10.10;100.00
12969;BME280;6549;53.128;8.182;2022-09-12T04:45:10;101420.50;;;10.04;100.00
12969;BME280;6549;53.128;8.182;2022-09-12T04:48:12;101422.00;;;10.02;100.00
12969;BME280;6549;53.128;8.182;2022-09-12T04:51:24;101429.16;;;10.06;100.00
12969;BME280;6549;53.128;8.182;2022-09-12T04:54:26;101418.91;;;10.03;100.00
12969;BME280;6549;53.128;8.182;2022-09-12T04:57:27;101419.94;;;9.95;100.00
12969;BME280;6549;53.128;8.182;2022-09-12T05:00:27;101417.19;;;9.95;100.00
12969;BME280;6549;53.128;8.182;2022-09-12T05:03:28;101415.66;;;9.98;100.00
12969;BME280;6549;53.128;8.182;2022-09-12T05:06:30;101418.03;;;9.99;100.00
12969;BME280;6549;53.128;8.182;2022-09-12T05:09:31;101424.75;;;10.02;100.00
12969;BME280;6549;53.128;8.182;2022-09-12T05:12:31;101412.56;;;9.99;100.00
12969;BME280;6549;53.128;8.182;2022-09-12T05:15:31;101420.50;;;10.04;100.00
12969;BME280;6549;53.128;8.182;2022-09-12T05:18:33;101414.25;;;10.07;100.00
12969;BME280;6549;53.128;8.182;2022-09-12T05:21:34;101408.81;;;10.11;100.00
12969;BME280;6549;53.128;8.182;2022-09-12T05:24:34;101416.00;;;10.15;100.00
12969;BME280;6549;53.128;8.182;2022-09-12T05:27:36;101420.03;;;10.21;100.00
12969;BME280;6549;53.128;8.182;2022-09-12T05:30:37;101417.53;;;10.35;100.00
12969;BME280;6549;53.128;8.182;2022-09-12T05:33:39;101414.88;;;10.43;100.00
12969;BME280;6549;53.128;8.182;2022-09-12T05:36:40;101414.38;;;10.60;100.00
12969;BME280;6549;53.128;8.182;2022-09-12T05:39:40;101416.41;;;11.19;100.00
12969;BME280;6549;53.128;8.182;2022-09-12T05:42:40;101410.53;;;11.87;100.00
12969;BME280;6549;53.128;8.182;2022-09-12T05:45:41;101421.81;;;12.63;100.00
12969;BME280;6549;53.128;8.182;2022-09-12T05:48:43;101407.22;;;13.28;100.00
12969;BME280;6549;53.128;8.182;2022-09-12T05:51:44;101412.16;;;13.84;100.00
12969;BME280;6549;53.128;8.182;2022-09-12T05:54:44;101407.06;;;14.32;100.00
12969;BME280;6549;53.128;8.182;2022-09-12T05:57:46;101414.97;;;14.62;100.00
12969;BME280;6549;53.128;8.182;2022-09-12T06:00:46;101420.06;;;14.99;100.00
12969;BME280;6549;53.128;8.182;2022-09-12T06:03:50;101423.16;;;15.25;100.00
12969;BME280;6549;53.128;8.182;2022-09-12T06:06:51;101427.00;;;15.56;100.00
12969;BME280;6549;53.128;8.182;2022-09-12T06:09:51;101425.41;;;15.59;100.00
12969;BME280;6549;53.128;8.182;2022-09-12T06:12:52;101421.88;;;15.51;100.00
12969;BME280;6549;53.128;8.182;2022-09-12T06:15:52;101425.41;;;15.55;100.00
12969;BME280;6549;53.128;8.182;2022-09-12T06:18:55;101427.75;;;15.64;100.00
12969;BME280;6549;53.128;8.182;2022-09-12T06:21:55;101421.75;;;15.72;100.00
12969;BME280;6549;53.128;8.182;2022-09-12T06:24:56;101422.78;;;16.00;100.00
12969;BME280;6549;53.128;8.182;2022-09-12T06:27:56;101417.41;;;16.30;100.00
12969;BME280;6549;53.128;8.182;2022-09-12T06:31:11;101415.34;;;16.38;100.00
12969;BME280;6549;53.128;8.182;2022-09-12T06:34:13;101420.75;;;16.55;100.00
12969;BME280;6549;53.128;8.182;2022-09-12T06:37:14;101418.44;;;16.47;100.00
12969;BME280;6549;53.128;8.182;2022-09-12T06:40:14;101421.25;;;16.43;100.00
12969;BME280;6549;53.128;8.182;2022-09-12T06:43:15;101420.69;;;16.66;100.00
12969;BME280;6549;53.128;8.182;2022-09-12T06:46:15;101406.25;;;16.82;100.00
12969;BME280;6549;53.128;8.182;2022-09-12T06:49:16;101411.22;;;16.60;100.00
12969;BME280;6549;53.128;8.182;2022-09-12T06:52:16;101408.44;;;17.01;100.00
12969;BME280;6549;53.128;8.182;2022-09-12T06:55:17;101413.75;;;17.52;100.00
12969;BME280;6549;53.128;8.182;2022-09-12T06:58:17;101420.66;;;18.02;100.00
12969;BME280;6549;53.128;8.182;2022-09-12T07:01:20;101409.97;;;18.23;100.00
12969;BME280;6549;53.128;8.182;2022-09-12T07:04:20;101415.75;;;18.36;100.00
12969;BME280;6549;53.128;8.182;2022-09-12T07:07:21;101418.66;;;18.52;100.00
12969;BME280;6549;53.128;8.182;2022-09-12T07:10:21;101418.19;;;18.80;100.00
12969;BME280;6549;53.128;8.182;2022-09-12T07:13:22;101417.41;;;18.80;100.00
12969;BME280;6549;53.128;8.182;2022-09-12T07:16:22;101415.81;;;18.79;100.00
12969;BME280;6549;53.128;8.182;2022-09-12T07:19:22;101409.63;;;18.91;100.00
12969;BME280;6549;53.128;8.182;2022-09-12T07:22:23;101415.63;;;19.09;100.00
12969;BME280;6549;53.128;8.182;2022-09-12T07:25:24;101412.13;;;19.05;100.00
12969;BME280;6549;53.128;8.182;2022-09-12T07:28:26;101417.31;;;18.83;100.00
12969;BME280;6549;53.128;8.182;2022-09-12T07:31:28;101411.69;;;18.40;100.00
12969;BME280;6549;53.128;8.182;2022-09-12T07:34:28;101419.22;;;18.17;100.00
12969;BME280;6549;53.128;8.182;2022-09-12T07:37:29;101415.59;;;17.93;100.00
12969;BME280;6549;53.128;8.182;2022-09-12T07:40:30;101411.09;;;17.76;100.00
12969;BME280;6549;53.128;8.182;2022-09-12T07:43:31;101407.22;;;17.70;100.00
12969;BME280;6549;53.128;8.182;2022-09-12T07:46:31;101415.84;;;17.79;100.00
12969;BME280;6549;53.128;8.182;2022-09-12T07:49:32;101417.44;;;17.76;100.00
12969;BME280;6549;53.128;8.182;2022-09-12T07:52:32;101415.97;;;17.68;100.00
12969;BME280;6549;53.128;8.182;2022-09-12T07:55:33;101419.03;;;17.77;100.00
12969;BME280;6549;53.128;8.182;2022-09-12T07:58:34;101418.50;;;17.86;100.00
12969;BME280;6549;53.128;8.182;2022-09-12T08:01:35;101413.16;;;17.72;100.00
12969;BME280;6549;53.128;8.182;2022-09-12T08:04:36;101411.16;;;17.72;100.00
12969;BME280;6549;53.128;8.182;2022-09-12T08:07:36;101420.28;;;17.73;100.00
12969;BME280;6549;53.128;8.182;2022-09-12T08:10:36;101417.09;;;17.74;100.00
12969;BME280;6549;53.128;8.182;2022-09-12T08:13:38;101421.47;;;17.72;100.00
12969;BME280;6549;53.128;8.182;2022-09-12T08:16:39;101419.44;;;17.76;100.00
12969;BME280;6549;53.128;8.182;2022-09-12T08:19:39;101422.13;;;17.83;100.00
12969;BME280;6549;53.128;8.182;2022-09-12T08:22:39;101429.25;;;17.84;100.00
12969;BME280;6549;53.128;8.182;2022-09-12T08:25:40;101417.31;;;17.87;100.00
12969;BME280;6549;53.128;8.182;2022-09-12T08:28:43;101418.84;;;17.91;100.00
12969;BME280;6549;53.128;8.182;2022-09-12T08:31:44;101424.94;;;18.06;100.00
12969;BME280;6549;53.128;8.182;2022-09-12T08:34:45;101411.69;;;18.17;100.00
12969;BME280;6549;53.128;8.182;2022-09-12T08:37:46;101413.97;;;18.22;100.00
12969;BME280;6549;53.128;8.182;2022-09-12T08:40:57;101409.69;;;18.41;100.00
12969;BME280;6549;53.128;8.182;2022-09-12T08:47:27;101398.78;;;18.54;100.00
12969;BME280;6549;53.128;8.182;2022-09-12T08:50:30;101405.25;;;18.70;100.00
12969;BME280;6549;53.128;8.182;2022-09-12T08:53:33;101402.28;;;19.01;100.00
12969;BME280;6549;53.128;8.182;2022-09-12T08:56:35;101400.63;;;19.23;100.00
12969;BME280;6549;53.128;8.182;2022-09-12T08:59:38;101408.13;;;19.06;100.00
12969;BME280;6549;53.128;8.182;2022-09-12T09:05:50;101408.56;;;19.24;100.00
12969;BME280;6549;53.128;8.182;2022-09-12T09:09:05;101394.69;;;19.41;100.00
12969;BME280;6549;53.128;8.182;2022-09-12T09:15:40;101398.13;;;19.28;100.00
12969;BME280;6549;53.128;8.182;2022-09-12T09:18:45;101392.84;;;19.14;100.00
12969;BME280;6549;53.128;8.182;2022-09-12T09:22:03;101398.34;;;19.18;100.00
12969;BME280;6549;53.128;8.182;2022-09-12T09:25:14;101392.13;;;19.30;100.00
12969;BME280;6549;53.128;8.182;2022-09-12T09:28:24;101398.28;;;19.41;100.00
12969;BME280;6549;53.128;8.182;2022-09-12T09:31:32;101386.75;;;19.59;100.00
12969;BME280;6549;53.128;8.182;2022-09-12T09:34:34;101390.97;;;19.67;100.00
12969;BME280;6549;53.128;8.182;2022-09-12T09:37:55;101397.00;;;19.82;100.00
12969;BME280;6549;53.128;8.182;2022-09-12T09:41:12;101389.44;;;19.82;100.00
12969;BME280;6549;53.128;8.182;2022-09-12T09:44:18;101386.03;;;19.91;100.00
12969;BME280;6549;53.128;8.182;2022-09-12T09:47:18;101383.94;;;20.11;100.00
12969;BME280;6549;53.128;8.182;2022-09-12T09:50:19;101374.97;;;20.19;100.00
12969;BME280;6549;53.128;8.182;2022-09-12T09:53:49;101382.38;;;19.94;100.00
12969;BME280;6549;53.128;8.182;2022-09-12T09:56:51;101375.13;;;19.96;100.00
12969;BME280;6549;53.128;8.182;2022-09-12T09:59:51;101369.91;;;19.98;100.00
12969;BME280;6549;53.128;8.182;2022-09-12T10:09:28;101372.88;;;20.24;100.00
12969;BME280;6549;53.128;8.182;2022-09-12T10:12:28;101367.66;;;20.42;100.00
12969;BME280;6549;53.128;8.182;2022-09-12T10:15:29;101366.97;;;20.83;100.00
12969;BME280;6549;53.128;8.182;2022-09-12T10:18:38;101363.22;;;21.56;100.00
12969;BME280;6549;53.128;8.182;2022-09-12T10:21:50;101360.38;;;21.98;100.00
12969;BME280;6549;53.128;8.182;2022-09-12T10:24:54;101349.72;;;22.05;100.00
12969;BME280;6549;53.128;8.182;2022-09-12T10:27:59;101356.78;;;21.97;100.00
12969;BME280;6549;53.128;8.182;2022-09-12T10:31:00;101348.59;;;22.03;100.00
12969;BME280;6549;53.128;8.182;2022-09-12T10:34:01;101338.53;;;21.92;100.00
12969;BME280;6549;53.128;8.182;2022-09-12T10:37:05;101340.09;;;21.93;100.00
12969;BME280;6549;53.128;8.182;2022-09-12T10:40:19;101346.78;;;21.83;100.00
12969;BME280;6549;53.128;8.182;2022-09-12T10:46:28;101348.91;;;21.92;100.00
12969;BME280;6549;53.128;8.182;2022-09-12T10:49:30;101338.00;;;22.32;100.00
12969;BME280;6549;53.128;8.182;2022-09-12T10:52:36;101330.84;;;22.65;89.86
12969;BME280;6549;53.128;8.182;2022-09-12T10:55:38;101328.88;;;22.88;87.16
12969;BME280;6549;53.128;8.182;2022-09-12T11:02:26;101327.81;;;22.72;80.49
12969;BME280;6549;53.128;8.182;2022-09-12T11:09:32;101317.97;;;22.90;80.47
12969;BME280;6549;53.128;8.182;2022-09-12T11:12:50;101320.94;;;22.52;78.99
12969;BME280;6549;53.128;8.182;2022-09-12T11:19:27;101320.72;;;22.46;81.45
12969;BME280;6549;53.128;8.182;2022-09-12T11:22:42;101321.38;;;22.50;75.71
12969;BME280;6549;53.128;8.182;2022-09-12T11:36:20;101303.19;;;23.20;74.57
12969;BME280;6549;53.128;8.182;2022-09-12T11:39:38;101302.88;;;23.18;71.26
12969;BME280;6549;53.128;8.182;2022-09-12T11:42:39;101302.47;;;23.28;72.13
12969;BME280;6549;53.128;8.182;2022-09-12T11:45:42;101299.84;;;23.65;73.40
12969;BME280;6549;53.128;8.182;2022-09-12T11:52:10;101301.72;;;24.35;63.31
12969;BME280;6549;53.128;8.182;2022-09-12T11:55:18;101299.22;;;24.19;58.61
12969;BME280;6549;53.128;8.182;2022-09-12T11:58:24;101298.44;;;24.19;62.16
12969;BME280;6549;53.128;8.182;2022-09-12T12:01:30;101298.88;;;24.17;62.26
12969;BME280;6549;53.128;8.182;2022-09-12T12:04:37;101302.28;;;24.03;60.88
12969;BME280;6549;53.128;8.182;2022-09-12T12:07:50;101287.00;;;24.04;59.22
12969;BME280;6549;53.128;8.182;2022-09-12T12:10:58;101289.69;;;24.53;57.54
12969;BME280;6549;53.128;8.182;2022-09-12T12:14:01;101277.38;;;24.69;57.13
12969;BME280;6549;53.128;8.182;2022-09-12T12:17:04;101272.84;;;24.62;55.19
12969;BME280;6549;53.128;8.182;2022-09-12T12:20:15;101269.88;;;24.56;54.64
12969;BME280;6549;53.128;8.182;2022-09-12T12:23:28;101265.53;;;24.37;54.35
12969;BME280;6549;53.128;8.182;2022-09-12T12:29:47;101258.47;;;24.78;55.19
12969;BME280;6549;53.128;8.182;2022-09-12T12:32:48;101262.22;;;24.66;53.27
12969;BME280;6549;53.128;8.182;2022-09-12T12:38:58;101252.56;;;25.18;51.90
12969;BME280;6549;53.128;8.182;2022-09-12T12:41:59;101246.63;;;25.25;51.37
12969;BME280;6549;53.128;8.182;2022-09-12T12:48:29;101240.06;;;25.61;49.12
12969;BME280;6549;53.128;8.182;2022-09-12T12:51:32;101241.13;;;25.64;48.22
12969;BME280;6549;53.128;8.182;2022-09-12T12:57:47;101227.50;;;25.38;49.99
12969;BME280;6549;53.128;8.182;2022-09-12T13:04:14;101231.25;;;24.93;49.50
12969;BME280;6549;53.128;8.182;2022-09-12T13:07:36;101228.63;;;24.72;49.26
12969;BME280;6549;53.128;8.182;2022-09-12T13:10:38;101220.84;;;24.57;49.00
12969;BME280;6549;53.128;8.182;2022-09-12T13:13:56;101219.72;;;24.91;50.20
12969;BME280;6549;53.128;8.182;2022-09-12T13:17:03;101220.13;;;25.08;49.43
12969;BME280;6549;53.128;8.182;2022-09-12T13:23:29;101209.31;;;25.48;50.09
12969;BME280;6549;53.128;8.182;2022-09-12T13:26:40;101210.25;;;25.45;48.86
12969;BME280;6549;53.128;8.182;2022-09-12T13:29:42;101197.84;;;25.28;48.44
12969;BME280;6549;53.128;8.182;2022-09-12T13:32:43;101192.41;;;25.25;47.84
12969;BME280;6549;53.128;8.182;2022-09-12T13:36:16;101184.47;;;25.14;50.75
12969;BME280;6549;53.128;8.182;2022-09-12T13:39:44;101168.75;;;25.08;50.20
12969;BME280;6549;53.128;8.182;2022-09-12T13:42:47;101170.72;;;25.16;50.63
12969;BME280;6549;53.128;8.182;2022-09-12T13:45:48;101171.69;;;25.13;49.70
12969;BME280;6549;53.128;8.182;2022-09-12T13:48:49;101162.56;;;24.85;49.44
12969;BME280;6549;53.128;8.182;2022-09-12T13:52:02;101158.81;;;24.88;48.56
12969;BME280;6549;53.128;8.182;2022-09-12T13:58:32;101161.22;;;24.63;49.64
12969;BME280;6549;53.128;8.182;2022-09-12T14:01:38;101155.53;;;24.81;49.96
12969;BME280;6549;53.128;8.182;2022-09-12T14:04:39;101156.00;;;24.79;47.57
12969;BME280;6549;53.128;8.182;2022-09-12T14:08:00;101168.63;;;24.84;48.66
12969;BME280;6549;53.128;8.182;2022-09-12T14:11:07;101152.44;;;24.70;47.10
12969;BME280;6549;53.128;8.182;2022-09-12T14:14:18;101152.03;;;24.53;47.58
12969;BME280;6549;53.128;8.182;2022-09-12T14:17:26;101150.31;;;24.55;48.05
12969;BME280;6549;53.128;8.182;2022-09-12T14:20:35;101147.81;;;24.57;47.86
12969;BME280;6549;53.128;8.182;2022-09-12T14:23:39;101130.19;;;24.48;47.08
12969;BME280;6549;53.128;8.182;2022-09-12T14:26:41;101145.03;;;24.48;48.75
12969;BME280;6549;53.128;8.182;2022-09-12T14:29:44;101133.66;;;24.43;49.33
12969;BME280;6549;53.128;8.182;2022-09-12T14:33:02;101126.09;;;24.58;49.56
12969;BME280;6549;53.128;8.182;2022-09-12T14:36:08;101116.69;;;24.70;48.31
12969;BME280;6549;53.128;8.182;2022-09-12T14:39:19;101114.03;;;24.76;47.32
12969;BME280;6549;53.128;8.182;2022-09-12T14:42:25;101120.66;;;24.54;47.69
12969;BME280;6549;53.128;8.182;2022-09-12T14:45:30;101105.03;;;24.63;48.63
12969;BME280;6549;53.128;8.182;2022-09-12T14:48:34;101101.56;;;24.68;48.59
12969;BME280;6549;53.128;8.182;2022-09-12T14:51:37;101091.44;;;24.61;48.23
12969;BME280;6549;53.128;8.182;2022-09-12T14:54:39;101094.41;;;24.57;48.61
12969;BME280;6549;53.128;8.182;2022-09-12T14:57:42;101095.53;;;24.60;48.97
12969;BME280;6549;53.128;8.182;2022-09-12T15:00:59;101087.72;;;24.55;48.30
12969;BME280;6549;53.128;8.182;2022-09-12T15:04:01;101087.13;;;24.51;48.32
12969;BME280;6549;53.128;8.182;2022-09-12T15:07:15;101091.66;;;24.39;47.37
12969;BME280;6549;53.128;8.182;2022-09-12T15:13:27;101101.38;;;24.38;48.03
12969;BME280;6549;53.128;8.182;2022-09-12T15:16:28;101095.59;;;24.42;48.85
12969;BME280;6549;53.128;8.182;2022-09-12T15:19:28;101080.63;;;24.27;48.72
12969;BME280;6549;53.128;8.182;2022-09-12T15:22:28;101083.78;;;24.20;49.17
12969;BME280;6549;53.128;8.182;2022-09-12T15:25:29;101069.28;;;24.03;49.42
12969;BME280;6549;53.128;8.182;2022-09-12T15:28:30;101075.34;;;24.01;50.11
12969;BME280;6549;53.128;8.182;2022-09-12T15:31:31;101078.94;;;24.02;50.50
12969;BME280;6549;53.128;8.182;2022-09-12T15:34:32;101069.59;;;23.87;50.40
12969;BME280;6549;53.128;8.182;2022-09-12T15:37:32;101079.28;;;23.77;51.15
12969;BME280;6549;53.128;8.182;2022-09-12T15:40:32;101072.41;;;23.68;51.75
12969;BME280;6549;53.128;8.182;2022-09-12T15:43:33;101066.81;;;23.68;52.02
12969;BME280;6549;53.128;8.182;2022-09-12T15:46:33;101054.31;;;23.42;52.70
12969;BME280;6549;53.128;8.182;2022-09-12T15:49:33;101062.31;;;23.44;53.23
12969;BME280;6549;53.128;8.182;2022-09-12T15:52:34;101056.50;;;23.38;53.00
12969;BME280;6549;53.128;8.182;2022-09-12T15:55:34;101052.75;;;23.41;52.90
12969;BME280;6549;53.128;8.182;2022-09-12T15:58:35;101053.28;;;23.49;54.27
12969;BME280;6549;53.128;8.182;2022-09-12T16:01:35;101055.75;;;23.47;53.29
12969;BME280;6549;53.128;8.182;2022-09-12T16:04:35;101053.09;;;23.52;52.97
12969;BME280;6549;53.128;8.182;2022-09-12T16:07:36;101049.69;;;23.57;52.60
12969;BME280;6549;53.128;8.182;2022-09-12T16:10:36;101037.84;;;23.53;52.44
12969;BME280;6549;53.128;8.182;2022-09-12T16:13:36;101030.06;;;23.48;53.03
12969;BME280;6549;53.128;8.182;2022-09-12T16:16:37;101035.94;;;23.50;53.81
12969;BME280;6549;53.128;8.182;2022-09-12T16:19:37;101027.06;;;23.43;53.02
12969;BME280;6549;53.128;8.182;2022-09-12T16:22:38;101022.22;;;23.43;53.56
12969;BME280;6549;53.128;8.182;2022-09-12T16:25:39;101023.81;;;23.44;52.63
12969;BME280;6549;53.128;8.182;2022-09-12T16:28:39;101012.41;;;23.39;53.42
12969;BME280;6549;53.128;8.182;2022-09-12T16:31:40;101015.03;;;23.33;53.39
12969;BME280;6549;53.128;8.182;2022-09-12T16:34:40;101012.56;;;23.26;54.06
12969;BME280;6549;53.128;8.182;2022-09-12T16:37:40;101006.16;;;23.16;54.83
12969;BME280;6549;53.128;8.182;2022-09-12T16:40:41;101008.81;;;23.11;55.29
12969;BME280;6549;53.128;8.182;2022-09-12T16:43:41;100996.50;;;22.99;55.78
12969;BME280;6549;53.128;8.182;2022-09-12T16:46:42;101000.06;;;22.81;56.50
12969;BME280;6549;53.128;8.182;2022-09-12T16:49:42;101001.09;;;22.75;57.20
12969;BME280;6549;53.128;8.182;2022-09-12T16:52:42;100997.34;;;22.69;57.89
12969;BME280;6549;53.128;8.182;2022-09-12T16:55:47;100989.34;;;22.49;59.66
12969;BME280;6549;53.128;8.182;2022-09-12T16:58:48;100981.53;;;22.44;59.93
12969;BME280;6549;53.128;8.182;2022-09-12T17:01:48;100974.81;;;22.32;61.19
12969;BME280;6549;53.128;8.182;2022-09-12T17:04:49;100974.47;;;22.21;61.88
12969;BME280;6549;53.128;8.182;2022-09-12T17:07:51;100981.13;;;22.15;62.69
12969;BME280;6549;53.128;8.182;2022-09-12T17:10:51;100972.28;;;22.16;64.64
12969;BME280;6549;53.128;8.182;2022-09-12T17:13:53;100973.13;;;21.95;65.57
12969;BME280;6549;53.128;8.182;2022-09-12T17:16:54;100972.41;;;21.91;66.62
12969;BME280;6549;53.128;8.182;2022-09-12T17:19:55;100958.25;;;21.85;68.24
12969;BME280;6549;53.128;8.182;2022-09-12T17:22:55;100960.09;;;21.79;69.44
12969;BME280;6549;53.128;8.182;2022-09-12T17:25:55;100940.72;;;21.63;70.03
12969;BME280;6549;53.128;8.182;2022-09-12T17:28:56;100939.44;;;21.55;71.59
12969;BME280;6549;53.128;8.182;2022-09-12T17:31:56;100950.09;;;21.47;72.04
12969;BME280;6549;53.128;8.182;2022-09-12T17:34:57;100950.03;;;21.38;73.19
12969;BME280;6549;53.128;8.182;2022-09-12T17:37:57;100945.16;;;21.30;74.07
12969;BME280;6549;53.128;8.182;2022-09-12T17:41:09;100939.47;;;21.21;76.25